createdAt,value
2023-05-11T00:01:32.895Z,57.29
2023-05-11T00:04:33.983Z,57.58
2023-05-11T00:07:36.946Z,58.19
2023-05-11T00:10:37.883Z,58.13
2023-05-11T00:13:38.885Z,58.19
2023-05-11T00:16:39.901Z,58.17
2023-05-11T00:19:40.926Z,58.62
2023-05-11T00:22:44.068Z,59.11
2023-05-11T00:25:45.982Z,59.03
2023-05-11T00:28:46.915Z,59.38
2023-05-11T00:31:47.955Z,59.48
2023-05-11T00:34:48.986Z,59.41
2023-05-11T00:37:43.011Z,59.58
2023-05-11T00:40:46.977Z,60.01
2023-05-11T00:43:48.162Z,60.14
2023-05-11T00:46:48.974Z,60.30
2023-05-11T00:49:49.945Z,60.50
2023-05-11T00:52:50.945Z,60.64
2023-05-11T00:55:51.976Z,61.07
2023-05-11T00:58:52.983Z,61.09
2023-05-11T01:01:54.085Z,60.78
2023-05-11T01:04:54.949Z,60.41
2023-05-11T01:08:13.007Z,60.58
2023-05-11T01:11:17.055Z,60.75
2023-05-11T01:14:28.188Z,61.13
2023-05-11T01:17:32.040Z,61.93
2023-05-11T01:20:35.020Z,62.18
2023-05-11T01:23:46.088Z,62.42
2023-05-11T01:27:05.060Z,62.42
2023-05-11T01:30:12.038Z,62.43
2023-05-11T01:33:13.076Z,62.34
2023-05-11T01:36:15.070Z,62.56
2023-05-11T01:39:17.062Z,63.27
2023-05-11T01:42:22.032Z,63.40
2023-05-11T01:45:23.070Z,63.63
2023-05-11T01:48:25.017Z,64.31
2023-05-11T01:51:26.113Z,64.18
2023-05-11T01:54:27.051Z,63.76
2023-05-11T01:57:28.160Z,63.80
2023-05-11T02:00:29.103Z,64.35
2023-05-11T02:03:30.125Z,64.28
2023-05-11T02:06:31.128Z,63.90
2023-05-11T02:09:25.153Z,63.82
2023-05-11T02:12:26.115Z,63.63
2023-05-11T02:15:27.145Z,63.94
2023-05-11T02:18:29.262Z,64.11
2023-05-11T02:21:30.099Z,64.43
2023-05-11T02:24:31.112Z,64.69
2023-05-11T02:27:32.094Z,64.82
2023-05-11T02:30:33.117Z,64.95
2023-05-11T02:33:34.102Z,65.36
2023-05-11T02:36:36.167Z,65.76
2023-05-11T02:39:30.230Z,66.54
2023-05-11T02:42:16.260Z,67.34
2023-05-11T02:45:08.177Z,67.70
2023-05-11T02:47:56.217Z,68.50
2023-05-11T02:50:58.192Z,68.80
2023-05-11T02:54:02.291Z,68.95
2023-05-11T02:57:03.151Z,69.36
2023-05-11T03:00:04.279Z,70.68
2023-05-11T03:03:06.303Z,71.55
2023-05-11T03:06:07.240Z,71.97
2023-05-11T03:09:10.162Z,72.21
2023-05-11T03:12:13.181Z,72.55
2023-05-11T03:15:15.233Z,72.46
2023-05-11T03:18:16.163Z,71.57
2023-05-11T03:21:17.200Z,71.47
2023-05-11T03:24:19.255Z,71.84
2023-05-11T03:27:20.168Z,71.94
2023-05-11T03:30:21.213Z,71.36
2023-05-11T03:33:22.271Z,72.04
2023-05-11T03:36:23.222Z,72.16
2023-05-11T03:39:25.205Z,72.06
2023-05-11T03:42:26.271Z,72.14
2023-05-11T03:45:27.267Z,72.14
2023-05-11T03:48:30.265Z,72.29
2023-05-11T03:51:31.212Z,72.67
2023-05-11T03:54:32.262Z,73.16
2023-05-11T03:57:33.409Z,72.92
2023-05-11T04:00:34.335Z,72.54
2023-05-11T04:03:35.601Z,71.59
2023-05-11T04:06:36.279Z,71.43
2023-05-11T04:09:43.307Z,72.12
2023-05-11T04:12:45.276Z,71.71
2023-05-11T04:15:46.326Z,71.88
2023-05-11T04:18:47.320Z,72.43
2023-05-11T04:21:48.322Z,72.19
2023-05-11T04:24:49.475Z,72.03
2023-05-11T04:27:50.278Z,71.45
2023-05-11T04:30:52.410Z,71.24
2023-05-11T04:33:46.383Z,70.45
2023-05-11T04:36:47.359Z,69.57
2023-05-11T04:39:48.388Z,67.97
2023-05-11T04:42:49.392Z,66.45
2023-05-11T04:45:50.358Z,65.78
2023-05-11T04:48:53.352Z,64.25
2023-05-11T04:51:55.078Z,63.41
2023-05-11T04:54:55.366Z,62.29
2023-05-11T04:57:56.383Z,61.04
2023-05-11T05:00:57.380Z,60.20
2023-05-11T05:03:58.404Z,60.04
2023-05-11T05:06:59.592Z,59.37
2023-05-11T05:10:04.088Z,58.64
2023-05-11T05:13:04.500Z,59.22
2023-05-11T05:16:05.444Z,55.49
2023-05-11T05:19:06.515Z,54.49
2023-05-11T05:22:07.525Z,55.20
2023-05-11T05:25:09.172Z,56.06
2023-05-11T05:28:10.459Z,55.65
2023-05-11T05:31:13.719Z,54.68
2023-05-11T05:34:16.817Z,53.37
2023-05-11T05:37:17.611Z,51.58
2023-05-11T05:40:21.495Z,49.31
2023-05-11T05:43:23.742Z,48.23
2023-05-11T05:46:24.511Z,46.50
2023-05-11T05:49:25.506Z,44.47
2023-05-11T05:52:26.466Z,43.49
2023-05-11T05:55:27.463Z,41.31
2023-05-11T05:58:30.632Z,40.53
2023-05-11T06:01:33.494Z,40.24
2023-05-11T06:04:37.423Z,39.88
2023-05-11T06:07:38.765Z,39.32
2023-05-11T06:10:41.683Z,38.02
2023-05-11T06:13:45.641Z,36.43
2023-05-11T06:16:49.614Z,34.31
2023-05-11T06:19:50.688Z,32.72
2023-05-11T06:22:54.963Z,31.50
2023-05-11T06:25:59.172Z,30.50
2023-05-11T06:29:03.620Z,29.26
2023-05-11T06:32:05.936Z,28.87
2023-05-11T06:35:00.065Z,28.54
2023-05-11T06:37:40.909Z,27.96
2023-05-11T06:40:31.802Z,26.94
2023-05-11T06:43:11.973Z,26.80
2023-05-11T06:46:03.463Z,25.89
2023-05-11T06:49:04.591Z,26.15
2023-05-11T06:52:06.033Z,25.66
2023-05-11T06:55:07.747Z,25.27
2023-05-11T06:58:08.982Z,25.13
2023-05-11T07:01:12.732Z,24.70
2023-05-11T07:04:14.107Z,24.42
2023-05-11T07:07:18.745Z,24.31
2023-05-11T07:10:22.010Z,24.34
2023-05-11T07:13:22.661Z,24.14
2023-05-11T07:16:23.637Z,22.99
2023-05-11T07:19:24.674Z,21.93
2023-05-11T07:22:26.178Z,22.50
2023-05-11T07:25:26.829Z,22.89
2023-05-11T07:28:27.661Z,22.84
2023-05-11T07:31:29.740Z,21.56
2023-05-11T07:34:31.689Z,21.42
2023-05-11T07:37:32.792Z,21.72
2023-05-11T07:40:34.397Z,21.96
2023-05-11T07:43:39.935Z,21.79
2023-05-11T07:46:41.256Z,21.64
2023-05-11T07:49:43.950Z,21.12
2023-05-11T07:52:44.721Z,21.24
2023-05-11T07:55:46.155Z,22.36
2023-05-11T07:58:47.807Z,22.61
2023-05-11T08:01:48.803Z,23.14
2023-05-11T08:04:49.802Z,23.65
2023-05-11T08:07:51.195Z,24.12
2023-05-11T08:10:52.733Z,24.34
2023-05-11T08:13:53.878Z,24.66
2023-05-11T08:16:54.982Z,24.89
2023-05-11T08:19:56.771Z,24.94
2023-05-11T08:22:59.801Z,24.20
2023-05-11T08:26:06.578Z,21.67
2023-05-11T08:29:07.845Z,20.34
2023-05-11T08:32:08.803Z,20.03
2023-05-11T08:35:10.790Z,20.57
2023-05-11T08:38:12.169Z,20.99
2023-05-11T08:41:13.898Z,21.37
2023-05-11T08:44:14.964Z,21.47
2023-05-11T08:47:23.187Z,21.50
2023-05-11T08:50:25.846Z,21.70
2023-05-11T08:53:26.813Z,21.72
2023-05-11T08:56:28.812Z,21.92
2023-05-11T08:59:30.009Z,21.75
2023-05-11T09:02:31.849Z,21.79
2023-05-11T09:05:32.997Z,23.20
2023-05-11T09:08:33.844Z,24.11
2023-05-11T09:11:28.214Z,24.56
2023-05-11T09:14:08.556Z,24.83
2023-05-11T09:16:57.002Z,24.57
2023-05-11T09:19:37.592Z,23.74
2023-05-11T09:22:24.903Z,22.64
2023-05-11T09:25:11.862Z,21.88
2023-05-11T09:28:16.076Z,20.86
2023-05-11T09:31:17.912Z,19.80
2023-05-11T09:34:18.865Z,19.77
2023-05-11T09:37:21.954Z,19.44
2023-05-11T09:40:27.410Z,18.89
2023-05-11T09:43:30.978Z,18.39
2023-05-11T09:46:28.143Z,18.04
2023-05-11T09:49:30.929Z,17.30
2023-05-11T09:52:31.983Z,17.16
2023-05-11T09:55:35.081Z,16.82
2023-05-11T09:58:36.108Z,16.39
2023-05-11T10:01:47.150Z,16.67
2023-05-11T10:04:48.462Z,16.60
2023-05-11T10:07:50.763Z,16.61
2023-05-11T10:10:52.946Z,16.69
2023-05-11T10:13:58.378Z,16.35
2023-05-11T10:16:58.957Z,16.03
2023-05-11T10:20:04.138Z,16.04
2023-05-11T10:23:07.956Z,16.46
2023-05-11T10:26:10.016Z,16.78
2023-05-11T10:29:10.975Z,16.98
2023-05-11T10:32:12.006Z,17.35
2023-05-11T10:35:13.021Z,17.29
2023-05-11T10:38:14.219Z,17.60
2023-05-11T10:41:30.091Z,17.44
2023-05-11T10:44:38.813Z,17.25
2023-05-11T10:47:46.103Z,16.91
2023-05-11T10:50:48.008Z,16.68
2023-05-11T10:53:55.048Z,16.40
2023-05-11T10:57:08.142Z,16.04
2023-05-11T11:00:42.236Z,16.08
2023-05-11T11:03:43.336Z,16.35
2023-05-11T11:06:45.616Z,16.52
2023-05-11T11:10:06.035Z,17.07
2023-05-11T11:13:28.099Z,17.10
2023-05-11T11:16:32.265Z,17.20
2023-05-11T11:19:45.106Z,17.37
2023-05-11T11:22:49.106Z,17.27
2023-05-11T11:26:04.566Z,17.55
2023-05-11T11:29:08.336Z,18.05
2023-05-11T11:32:09.169Z,18.55
2023-05-11T11:35:10.318Z,18.84
2023-05-11T11:38:15.151Z,19.09
2023-05-11T11:41:17.366Z,19.45
2023-05-11T11:44:18.549Z,19.16
2023-05-11T11:47:28.149Z,18.36
2023-05-11T11:50:22.146Z,18.44
2023-05-11T11:53:29.253Z,17.98
2023-05-11T11:56:30.164Z,17.45
2023-05-11T11:59:31.195Z,17.38
2023-05-11T12:02:34.031Z,16.83
2023-05-11T12:05:37.169Z,16.55
2023-05-11T12:08:39.205Z,16.60
2023-05-11T12:11:40.366Z,16.68
2023-05-11T12:14:41.178Z,16.36
2023-05-11T12:17:42.157Z,16.17
2023-05-11T12:20:43.277Z,16.34
2023-05-11T12:23:44.192Z,16.37
2023-05-11T12:26:45.189Z,17.18
2023-05-11T12:29:47.189Z,17.26
2023-05-11T12:32:48.252Z,16.33
2023-05-11T12:35:49.181Z,16.63
2023-05-11T12:38:57.228Z,17.32
2023-05-11T12:41:58.243Z,17.73
2023-05-11T12:44:59.298Z,18.04
2023-05-11T12:48:03.236Z,18.87
2023-05-11T12:51:05.217Z,19.26
2023-05-11T12:54:06.225Z,19.41
2023-05-11T12:57:07.262Z,19.79
2023-05-11T13:00:23.625Z,19.83
2023-05-11T13:03:24.431Z,19.32
2023-05-11T13:06:25.273Z,19.18
2023-05-11T13:09:26.299Z,19.28
2023-05-11T13:12:32.399Z,19.03
2023-05-11T13:15:35.476Z,18.80
2023-05-11T13:18:36.360Z,18.80
2023-05-11T13:21:37.267Z,19.01
2023-05-11T13:24:38.312Z,19.02
2023-05-11T13:27:39.327Z,19.05
2023-05-11T13:30:40.326Z,19.22
2023-05-11T13:33:41.283Z,19.33
2023-05-11T13:36:42.337Z,19.58
2023-05-11T13:39:43.340Z,19.32
2023-05-11T13:42:44.350Z,19.23
2023-05-11T13:45:47.365Z,19.41
2023-05-11T13:48:48.323Z,19.42
2023-05-11T13:51:49.359Z,19.49
2023-05-11T13:54:50.360Z,19.30
2023-05-11T13:57:51.613Z,19.13
2023-05-11T14:01:07.225Z,19.20
2023-05-11T14:04:09.384Z,19.41
2023-05-11T14:07:10.375Z,19.52
2023-05-11T14:10:11.383Z,19.40
2023-05-11T14:13:16.468Z,19.87
2023-05-11T14:16:17.496Z,19.99
2023-05-11T14:19:18.766Z,19.81
2023-05-11T14:22:19.361Z,20.09
2023-05-11T14:25:20.736Z,20.18
2023-05-11T14:31:50.375Z,20.83
2023-05-11T14:34:51.255Z,20.80
2023-05-11T14:37:52.957Z,20.95
2023-05-11T14:40:54.132Z,20.94
2023-05-11T14:44:06.407Z,21.01
2023-05-11T14:47:07.159Z,21.22
2023-05-11T14:50:09.146Z,21.26
2023-05-11T14:53:10.177Z,21.23
2023-05-11T14:56:11.108Z,21.37
2023-05-11T14:59:12.198Z,21.64
2023-05-11T15:02:13.217Z,21.72
2023-05-11T15:05:14.203Z,21.85
2023-05-11T15:08:28.460Z,22.15
2023-05-11T15:11:31.145Z,22.33
2023-05-11T15:14:32.123Z,22.53
2023-05-11T15:17:33.293Z,22.69
2023-05-11T15:20:27.276Z,22.90
2023-05-11T15:23:15.271Z,23.28
2023-05-11T15:26:16.403Z,23.47
2023-05-11T15:29:17.192Z,23.46
2023-05-11T15:32:18.219Z,23.38
2023-05-11T15:35:19.449Z,23.38
2023-05-11T15:38:20.222Z,23.43
2023-05-11T15:41:21.207Z,23.53
2023-05-11T15:44:22.297Z,23.47
2023-05-11T15:47:26.448Z,23.33
2023-05-11T15:50:29.351Z,23.24
2023-05-11T15:53:31.448Z,23.21
2023-05-11T15:56:35.373Z,23.31
2023-05-11T15:59:36.564Z,23.52
2023-05-11T16:02:37.386Z,23.66
2023-05-11T16:05:38.460Z,23.87
2023-05-11T16:08:40.397Z,23.98
2023-05-11T16:11:34.371Z,24.09
2023-05-11T16:14:35.247Z,24.39
2023-05-11T16:17:36.557Z,24.36
2023-05-11T16:20:37.385Z,24.49
2023-05-11T16:23:38.344Z,24.58
2023-05-11T16:26:39.345Z,24.84
2023-05-11T16:29:40.400Z,25.20
2023-05-11T16:32:41.384Z,25.51
2023-05-11T16:35:42.310Z,25.69
2023-05-11T16:38:45.305Z,26.03
2023-05-11T16:41:46.381Z,26.12
2023-05-11T16:44:47.306Z,26.32
2023-05-11T16:47:48.592Z,26.56
2023-05-11T16:50:49.385Z,26.57
2023-05-11T16:53:53.477Z,26.68
2023-05-11T16:56:54.312Z,26.88
2023-05-11T16:59:55.334Z,26.97
2023-05-11T17:02:56.704Z,27.34
2023-05-11T17:05:57.366Z,27.56
2023-05-11T17:08:58.436Z,27.96
2023-05-11T17:11:59.427Z,28.10
2023-05-11T17:15:00.412Z,28.50
2023-05-11T17:18:01.515Z,28.58
2023-05-11T17:21:08.693Z,28.89
2023-05-11T17:24:09.457Z,29.18
2023-05-11T17:27:10.451Z,29.40
2023-05-11T17:30:11.506Z,29.63
2023-05-11T17:33:14.798Z,30.04
2023-05-11T17:36:18.458Z,30.37
2023-05-11T17:39:26.883Z,30.63
2023-05-11T17:42:27.564Z,30.93
2023-05-11T17:45:21.771Z,31.23
2023-05-11T17:48:22.452Z,31.48
2023-05-11T17:51:23.500Z,31.73
2023-05-11T17:54:24.442Z,32.15
2023-05-11T17:57:26.534Z,32.36
2023-05-11T18:00:27.464Z,32.63
2023-05-11T18:03:21.537Z,32.86
2023-05-11T18:06:08.656Z,33.09
2023-05-11T18:09:11.454Z,33.19
2023-05-11T18:12:12.498Z,33.26
2023-05-11T18:15:13.517Z,33.50
2023-05-11T18:18:14.566Z,33.68
2023-05-11T18:21:18.487Z,33.95
2023-05-11T18:24:21.538Z,34.11
2023-05-11T18:27:22.565Z,34.17
2023-05-11T18:30:23.636Z,34.24
2023-05-11T18:33:24.557Z,34.55
2023-05-11T18:36:25.533Z,34.68
2023-05-11T18:39:26.521Z,34.67
2023-05-11T18:42:27.597Z,34.60
2023-05-11T18:45:28.577Z,34.67
2023-05-11T18:48:29.602Z,34.60
2023-05-11T18:51:30.545Z,34.65
2023-05-11T18:54:31.605Z,34.61
2023-05-11T18:57:32.829Z,34.70
2023-05-11T19:00:34.666Z,34.83
2023-05-11T19:03:37.593Z,35.13
2023-05-11T19:06:38.593Z,35.84
2023-05-11T19:09:49.477Z,36.40
2023-05-11T19:12:56.571Z,36.22
2023-05-11T19:16:17.311Z,36.56
2023-05-11T19:19:27.356Z,36.66
2023-05-11T19:22:46.100Z,36.64
2023-05-11T19:25:56.714Z,37.20
2023-05-11T19:29:09.305Z,36.88
2023-05-11T19:32:26.817Z,36.57
2023-05-11T19:35:39.912Z,36.31
2023-05-11T19:38:44.795Z,36.07
2023-05-11T19:41:52.359Z,35.75
2023-05-11T19:45:04.109Z,35.74
2023-05-11T19:48:06.693Z,35.46
2023-05-11T19:51:09.845Z,35.60
2023-05-11T19:54:10.575Z,35.74
2023-05-11T19:57:12.636Z,35.92
2023-05-11T20:00:08.814Z,36.21
2023-05-11T20:02:48.773Z,36.67
2023-05-11T20:05:35.674Z,37.08
2023-05-11T20:08:16.424Z,37.21
2023-05-11T20:11:04.750Z,37.31
2023-05-11T20:13:54.821Z,37.08
2023-05-11T20:16:55.657Z,36.45
2023-05-11T20:19:56.715Z,36.35
2023-05-11T20:22:57.725Z,36.04
2023-05-11T20:25:58.718Z,35.65
2023-05-11T20:28:59.673Z,36.03
2023-05-11T20:32:00.955Z,36.29
2023-05-11T20:35:01.738Z,35.50
2023-05-11T20:38:02.905Z,35.85
2023-05-11T20:41:04.927Z,35.86
2023-05-11T20:44:05.898Z,36.54
2023-05-11T20:47:07.032Z,36.55
2023-05-11T20:50:07.707Z,36.61
2023-05-11T20:53:08.792Z,36.42
2023-05-11T20:56:09.884Z,36.47
2023-05-11T21:00:03.577Z,36.39
2023-05-11T21:02:31.964Z,36.40
2023-05-11T21:05:32.899Z,36.31
2023-05-11T21:08:33.773Z,36.33
2023-05-11T21:11:35.968Z,36.44
2023-05-11T21:14:36.832Z,36.52
2023-05-11T21:17:37.798Z,36.79
2023-05-11T21:20:40.117Z,35.19
2023-05-11T21:23:40.797Z,35.37
2023-05-11T21:26:42.071Z,34.72
2023-05-11T21:29:42.795Z,35.33
2023-05-11T21:32:43.895Z,35.88
2023-05-11T21:35:44.843Z,36.14
2023-05-11T21:38:45.927Z,36.41
2023-05-11T21:41:46.782Z,36.58
2023-05-11T21:44:47.824Z,36.67
2023-05-11T21:47:48.874Z,36.78
2023-05-11T21:50:49.840Z,37.05
2023-05-11T21:53:50.904Z,37.13
2023-05-11T21:56:52.042Z,37.08
2023-05-11T21:59:52.816Z,36.89
2023-05-11T22:02:53.932Z,36.97
2023-05-11T22:05:54.865Z,36.98
2023-05-11T22:08:55.869Z,36.84
2023-05-11T22:11:56.874Z,37.02
2023-05-11T22:14:57.863Z,37.23
2023-05-11T22:17:58.910Z,37.34
2023-05-11T22:20:59.881Z,37.42
2023-05-11T22:24:00.880Z,37.33
2023-05-11T22:27:02.230Z,37.51
2023-05-11T22:30:02.886Z,37.39
2023-05-11T22:33:04.068Z,37.47
2023-05-11T22:36:04.967Z,38.27
2023-05-11T22:39:05.895Z,38.64
2023-05-11T22:42:06.943Z,38.87
2023-05-11T22:45:07.887Z,39.47
2023-05-11T22:48:09.968Z,39.88
2023-05-11T22:51:13.915Z,40.05
2023-05-11T22:54:15.447Z,39.64
2023-05-11T22:57:15.925Z,39.67
2023-05-11T23:00:18.186Z,38.15
2023-05-11T23:03:19.013Z,38.54
2023-05-11T23:06:22.434Z,38.97
2023-05-11T23:09:23.959Z,39.37
2023-05-11T23:12:24.904Z,39.89
2023-05-11T23:15:25.967Z,39.91
2023-05-11T23:18:28.304Z,39.93
2023-05-11T23:21:29.005Z,39.89
2023-05-11T23:24:30.010Z,40.12
2023-05-11T23:27:30.949Z,40.84
2023-05-11T23:30:26.071Z,41.16
2023-05-11T23:33:06.130Z,41.10
2023-05-11T23:36:03.988Z,41.26
2023-05-11T23:39:05.028Z,41.27
2023-05-11T23:42:07.013Z,41.33
2023-05-11T23:45:11.097Z,41.35
2023-05-11T23:48:12.082Z,41.39
2023-05-11T23:51:13.061Z,41.48
2023-05-11T23:54:14.038Z,41.19
2023-05-11T23:57:15.082Z,41.11
